Penang International Airport
WMKP : now visible

Airfield :











YOU CAN JOIN US ON...

 
LOGIN :

Register | Disclaimer

   EN    FR    IT 

 









Legend :    VFR   Marginal VFR   IFR   Intensive IFR   Very Intensive IFR
Visi :
Ceiling :
>= 8 km
>= 3000ft
5 to 8 km
1000 to 3000 ft
1500m to 5 km
500 to 1000 ft
800 to 1500m
200 to 500 ft
< 800m
< 200 ft
Symbols :   Thunderstorms  Fog  Heavy snow  Heavy precipitations  Wind > 20 kt






- Airport Elevation : 11 ft
- IATA code : PEN


WMKP - Penang International

CURRENT METAR :
  • 220400Z 18005KT 120V230 9999 FEW020 32/24 Q1010 NOSIG

EXPIRED METARs :
  • 220330Z VRB03KT 9000 FEW020 31/24 Q1010 NOSIG
  • 220300Z VRB02KT 8000 FEW020 30/24 Q1010 NOSIG
  • 220230Z 00000KT 8000 FEW020 30/23 Q1010 NOSIG
  • 220200Z 00000KT 8000 FEW020 28/24 Q1010 NOSIG
  • 220130Z 00000KT 8000 FEW020 27/23 Q1011 NOSIG

TAF TAF WMKP
Valid from the 22 at 00:00 until the 23 at 00:00 UTC


212300Z 2200/2300 VRB03KT 9000 FEW020
TEMPO 2202/2206 5000 TSRA FEW010 FEW017CB
BECMG 2204/2206 22006KT 9999
BECMG 2210/2212 VRB03KT 9000 FEW025
WMFC FIR / Asia



MET'MAP, your aeronautical weather chart ! - Copyright ORBIFLY December 2007 - Disclaimer

ORBIFLY MET'MAP TEAM :

Programming & Development : Alexandra Zaïnal
Concept & original design : Baudouin d'Aumeries
Assistance for programming : Marc-Olivier Méhu
Technical & hardware support : Manuel Goepfert

Contact : metmap@orbifly.com




SOURCES & CREDITS :

   NOAA       Earth
Advisory